createdAt,value
2018-10-16T00:00:16.218Z,24.05
2018-10-16T00:02:45.495Z,22.52
2018-10-16T00:05:14.193Z,23.20
2018-10-16T00:07:42.690Z,24.92
2018-10-16T00:10:11.169Z,22.80
2018-10-16T00:12:39.775Z,24.27
2018-10-16T00:15:09.618Z,23.90
2018-10-16T00:17:38.148Z,23.40
2018-10-16T00:20:07.156Z,24.32
2018-10-16T00:22:35.854Z,23.02
2018-10-16T00:25:04.548Z,22.62
2018-10-16T00:27:33.244Z,23.05
2018-10-16T00:30:01.839Z,23.12
2018-10-16T00:32:30.348Z,24.07
2018-10-16T00:34:58.885Z,22.52
2018-10-16T00:37:27.467Z,23.98
2018-10-16T00:39:55.958Z,23.25
2018-10-16T00:42:24.493Z,24.30
2018-10-16T00:44:52.986Z,21.77
2018-10-16T00:47:21.499Z,23.80
2018-10-16T00:49:50.001Z,23.60
2018-10-16T00:52:18.606Z,24.63
2018-10-16T00:54:47.213Z,23.50
2018-10-16T00:57:15.802Z,24.90
2018-10-16T00:59:44.637Z,23.50
2018-10-16T01:02:13.112Z,23.30
2018-10-16T01:04:41.875Z,21.48
2018-10-16T01:07:10.514Z,23.12
2018-10-16T01:09:39.152Z,22.55
2018-10-16T01:12:08.556Z,23.07
2018-10-16T01:14:37.201Z,23.18
2018-10-16T01:17:06.560Z,22.20
2018-10-16T01:19:35.152Z,22.45
2018-10-16T01:22:03.706Z,23.18
2018-10-16T01:24:32.321Z,23.45
2018-10-16T01:27:00.760Z,22.05
2018-10-16T01:29:29.292Z,22.50
2018-10-16T01:31:57.870Z,23.02
2018-10-16T01:34:26.514Z,25.48
2018-10-16T01:36:55.019Z,22.87
2018-10-16T01:39:24.370Z,22.32
2018-10-16T01:41:52.853Z,24.37
2018-10-16T01:44:21.430Z,22.77
2018-10-16T01:46:50.076Z,24.32
2018-10-16T01:49:18.547Z,22.42
2018-10-16T01:51:47.114Z,24.52
2018-10-16T01:54:15.722Z,23.90
2018-10-16T01:56:44.273Z,23.22
2018-10-16T01:59:13.362Z,22.65
2018-10-16T02:01:42.237Z,26.33
2018-10-16T02:04:11.279Z,22.58
2018-10-16T02:06:39.910Z,21.90
2018-10-16T02:09:11.039Z,23.02
2018-10-16T02:11:39.798Z,22.87
2018-10-16T02:14:08.591Z,23.22
2018-10-16T02:16:37.786Z,23.38
2018-10-16T02:19:06.421Z,23.10
2018-10-16T02:21:34.896Z,22.02
2018-10-16T02:24:03.492Z,22.77
2018-10-16T02:26:32.554Z,24.25
2018-10-16T02:29:01.136Z,24.12
2018-10-16T02:31:30.232Z,23.32
2018-10-16T02:33:59.323Z,22.10
2018-10-16T02:36:29.338Z,23.02
2018-10-16T02:38:58.413Z,23.05
2018-10-16T02:41:26.923Z,23.60
2018-10-16T02:43:55.478Z,22.42
2018-10-16T02:46:23.940Z,20.85
2018-10-16T02:48:52.542Z,21.15
2018-10-16T02:51:21.131Z,22.10
2018-10-16T02:53:50.184Z,22.55
2018-10-16T02:56:19.386Z,21.45
2018-10-16T02:58:48.662Z,22.00
2018-10-16T03:01:18.047Z,22.15
2018-10-16T03:03:47.253Z,21.45
2018-10-16T03:06:15.789Z,23.83
2018-10-16T03:08:44.839Z,21.52
2018-10-16T03:11:13.379Z,24.07
2018-10-16T03:13:41.953Z,23.92
2018-10-16T03:16:10.521Z,24.85
2018-10-16T03:18:39.206Z,24.02
2018-10-16T03:21:07.744Z,21.62
2018-10-16T03:23:36.246Z,23.22
2018-10-16T03:26:04.935Z,22.55
2018-10-16T03:28:33.475Z,23.02
2018-10-16T03:31:02.055Z,22.82
2018-10-16T03:33:30.582Z,22.45
2018-10-16T03:35:59.201Z,23.60
2018-10-16T03:38:27.783Z,23.62
2018-10-16T03:40:56.307Z,24.70
2018-10-16T03:43:25.874Z,22.70
2018-10-16T03:45:55.631Z,22.48
2018-10-16T03:48:24.197Z,23.02
2018-10-16T03:50:52.886Z,22.50
2018-10-16T03:53:21.486Z,22.22
2018-10-16T03:55:49.992Z,22.98
2018-10-16T03:58:18.529Z,21.65
2018-10-16T04:00:47.032Z,23.02
2018-10-16T04:03:15.586Z,24.20
2018-10-16T04:05:44.113Z,21.65
2018-10-16T04:08:12.671Z,24.43
2018-10-16T04:10:41.223Z,21.33
2018-10-16T04:13:09.783Z,22.37
2018-10-16T04:15:38.359Z,21.85
2018-10-16T04:18:06.859Z,22.87
2018-10-16T04:20:35.422Z,22.60
2018-10-16T04:23:03.940Z,23.80
2018-10-16T04:25:32.430Z,21.12
2018-10-16T04:28:00.935Z,22.75
2018-10-16T04:30:29.465Z,23.83
2018-10-16T04:32:57.961Z,23.73
2018-10-16T04:35:26.650Z,24.65
2018-10-16T04:37:55.630Z,23.75
2018-10-16T04:40:24.982Z,23.62
2018-10-16T04:42:53.669Z,23.70
2018-10-16T04:45:22.696Z,23.67
2018-10-16T04:47:51.197Z,23.50
2018-10-16T04:50:20.797Z,22.48
2018-10-16T04:52:49.288Z,21.50
2018-10-16T04:55:17.904Z,21.87
2018-10-16T04:57:46.592Z,24.02
2018-10-16T05:00:15.131Z,23.05
2018-10-16T05:02:43.714Z,24.30
2018-10-16T05:05:23.063Z,23.85
2018-10-16T05:07:52.195Z,23.02
2018-10-16T05:10:21.450Z,24.10
2018-10-16T05:12:50.211Z,23.57
2018-10-16T05:15:29.097Z,24.67
2018-10-16T05:17:57.933Z,23.52
2018-10-16T05:20:26.609Z,22.80
2018-10-16T05:22:55.926Z,22.50
2018-10-16T05:25:26.366Z,23.07
2018-10-16T05:27:55.131Z,25.02
2018-10-16T05:30:24.101Z,24.55
2018-10-16T05:32:53.615Z,22.73
2018-10-16T05:35:22.225Z,22.98
2018-10-16T05:37:50.886Z,23.20
2018-10-16T05:40:19.452Z,23.65
2018-10-16T05:42:47.945Z,25.50
2018-10-16T05:45:16.458Z,23.05
2018-10-16T05:47:45.847Z,22.25
2018-10-16T05:50:14.976Z,23.62
2018-10-16T05:52:43.486Z,24.70
2018-10-16T05:55:12.756Z,23.22
2018-10-16T05:57:41.479Z,21.75
2018-10-16T06:00:21.169Z,22.73
2018-10-16T06:02:49.856Z,23.65
2018-10-16T06:05:18.541Z,21.75
2018-10-16T06:07:47.179Z,23.05
2018-10-16T06:10:16.000Z,23.70
2018-10-16T06:12:45.463Z,23.75
2018-10-16T06:15:14.090Z,22.73
2018-10-16T06:17:42.629Z,24.43
2018-10-16T06:20:13.034Z,23.00
2018-10-16T06:22:42.719Z,24.00
2018-10-16T06:25:11.594Z,23.32
2018-10-16T06:27:41.483Z,22.70
2018-10-16T06:30:10.351Z,22.87
2018-10-16T06:32:39.862Z,22.60
2018-10-16T06:35:09.325Z,24.23
2018-10-16T06:37:37.908Z,22.55
2018-10-16T06:40:07.493Z,24.85
2018-10-16T06:42:36.607Z,23.83
2018-10-16T06:45:06.088Z,23.75
2018-10-16T06:47:34.797Z,23.55
2018-10-16T06:50:03.296Z,22.90
2018-10-16T06:52:32.143Z,23.30
2018-10-16T06:55:00.740Z,24.50
2018-10-16T06:57:30.004Z,23.45
2018-10-16T06:59:58.666Z,23.90
2018-10-16T07:02:27.240Z,26.33
2018-10-16T07:04:56.579Z,22.75
2018-10-16T07:07:25.226Z,22.17
2018-10-16T07:09:53.750Z,22.25
2018-10-16T07:12:22.304Z,25.77
2018-10-16T07:14:50.900Z,24.23
2018-10-16T07:17:19.474Z,23.98
2018-10-16T07:19:48.124Z,25.05
2018-10-16T07:22:16.892Z,24.47
2018-10-16T07:24:46.290Z,25.45
2018-10-16T07:27:14.974Z,25.52
2018-10-16T07:29:43.517Z,24.70
2018-10-16T07:32:12.312Z,23.92
2018-10-16T07:34:41.107Z,25.75
2018-10-16T07:37:09.630Z,23.47
2018-10-16T07:39:38.130Z,25.80
2018-10-16T07:42:06.752Z,25.90
2018-10-16T07:44:36.237Z,25.17
2018-10-16T07:47:04.812Z,26.52
2018-10-16T07:49:33.443Z,26.80
2018-10-16T07:52:02.254Z,26.65
2018-10-16T07:54:30.850Z,24.92
2018-10-16T07:56:59.453Z,26.70
2018-10-16T07:59:28.044Z,25.05
2018-10-16T08:01:56.770Z,27.27
2018-10-16T08:04:25.333Z,28.02
2018-10-16T08:06:53.923Z,26.15
2018-10-16T08:12:13.866Z,25.35
2018-10-16T08:14:42.444Z,26.48
2018-10-16T08:17:11.106Z,26.35
2018-10-16T08:19:39.640Z,25.25
2018-10-16T08:27:49.556Z,26.23
2018-10-16T08:30:18.181Z,25.35
2018-10-16T08:32:46.743Z,25.32
2018-10-16T08:35:16.004Z,27.13
2018-10-16T08:43:41.942Z,24.15
2018-10-16T08:46:21.684Z,24.90
2018-10-16T08:49:02.133Z,24.65
2018-10-16T08:51:44.656Z,26.48
2018-10-16T08:54:13.208Z,26.10
2018-10-16T08:56:42.649Z,25.45
2018-10-16T08:59:11.920Z,26.68
2018-10-16T09:01:40.642Z,25.68
2018-10-16T09:04:09.210Z,26.35
2018-10-16T09:06:38.341Z,27.05
2018-10-16T09:09:11.432Z,25.62
2018-10-16T09:11:40.019Z,25.92
2018-10-16T09:14:08.679Z,27.48
2018-10-16T09:16:37.810Z,25.82
2018-10-16T09:19:06.359Z,26.48
2018-10-16T09:21:35.126Z,25.70
2018-10-16T09:24:03.726Z,25.95
2018-10-16T09:26:32.416Z,24.25
2018-10-16T09:29:00.965Z,25.60
2018-10-16T09:31:29.613Z,26.50
2018-10-16T09:33:58.241Z,26.42
2018-10-16T09:36:26.876Z,25.82
2018-10-16T09:38:55.519Z,25.00
2018-10-16T09:41:25.086Z,27.32
2018-10-16T09:43:53.708Z,27.20
2018-10-16T09:46:22.646Z,25.35
2018-10-16T09:48:51.280Z,26.68
2018-10-16T09:51:20.013Z,25.62
2018-10-16T09:53:48.715Z,25.75
2018-10-16T09:56:17.484Z,25.40
2018-10-16T09:58:46.065Z,27.05
2018-10-16T10:01:20.025Z,26.90
2018-10-16T10:03:48.595Z,27.15
2018-10-16T10:06:17.341Z,25.77
2018-10-16T10:08:45.976Z,26.15
2018-10-16T10:11:14.526Z,26.35
2018-10-16T10:13:43.219Z,26.87
2018-10-16T10:16:11.907Z,28.25
2018-10-16T10:18:40.575Z,28.30
2018-10-16T10:21:09.246Z,28.32
2018-10-16T10:23:37.985Z,27.75
2018-10-16T10:26:06.852Z,27.55
2018-10-16T10:28:35.454Z,28.35
2018-10-16T10:31:04.232Z,25.97
2018-10-16T10:33:33.537Z,26.30
2018-10-16T10:36:02.442Z,26.95
2018-10-16T10:38:30.980Z,28.05
2018-10-16T10:40:59.568Z,28.38
2018-10-16T10:43:28.148Z,26.85
2018-10-16T10:45:56.997Z,27.07
2018-10-16T10:48:25.854Z,26.15
2018-10-16T10:50:54.701Z,27.58
2018-10-16T10:53:23.107Z,27.50
2018-10-16T10:55:51.652Z,27.30
2018-10-16T10:58:20.222Z,28.10
2018-10-16T11:00:48.928Z,26.60
2018-10-16T11:03:17.733Z,28.05
2018-10-16T11:05:46.424Z,27.02
2018-10-16T11:08:14.987Z,30.25
2018-10-16T11:10:43.664Z,26.93
2018-10-16T11:13:12.205Z,29.23
2018-10-16T11:15:41.822Z,27.95
2018-10-16T11:18:10.439Z,26.75
2018-10-16T11:20:39.160Z,35.30
2018-10-16T11:23:15.031Z,28.60
2018-10-16T11:25:43.737Z,27.67
2018-10-16T11:28:12.360Z,27.93
2018-10-16T11:30:41.076Z,28.02
2018-10-16T11:33:09.801Z,29.20
2018-10-16T11:35:38.332Z,27.75
2018-10-16T11:38:13.463Z,29.18
2018-10-16T11:40:42.177Z,28.40
2018-10-16T11:43:11.051Z,28.92
2018-10-16T11:45:39.659Z,26.77
2018-10-16T11:48:08.358Z,27.73
2018-10-16T11:50:37.430Z,28.12
2018-10-16T11:53:07.541Z,28.50
2018-10-16T11:55:37.354Z,27.05
2018-10-16T11:58:06.704Z,28.57
2018-10-16T12:00:35.410Z,26.42
2018-10-16T12:03:06.902Z,28.55
2018-10-16T12:05:35.925Z,26.77
2018-10-16T12:08:04.680Z,28.05
2018-10-16T12:10:33.394Z,27.20
2018-10-16T12:13:04.041Z,27.82
2018-10-16T12:15:33.266Z,28.00
2018-10-16T12:18:07.731Z,27.20
2018-10-16T12:20:47.014Z,28.30
2018-10-16T12:23:16.111Z,28.17
2018-10-16T12:25:46.039Z,26.90
2018-10-16T12:28:15.006Z,27.70
2018-10-16T12:30:44.539Z,31.60
2018-10-16T12:33:13.694Z,28.70
2018-10-16T12:35:42.521Z,28.30
2018-10-16T12:38:11.870Z,27.48
2018-10-16T12:40:40.622Z,27.37
2018-10-16T12:43:09.548Z,27.27
2018-10-16T12:45:38.271Z,25.90
2018-10-16T12:48:06.975Z,26.48
2018-10-16T12:50:35.794Z,25.92
2018-10-16T12:53:05.451Z,25.08
2018-10-16T12:55:34.667Z,26.12
2018-10-16T12:58:03.733Z,25.90
2018-10-16T13:00:32.503Z,25.72
2018-10-16T13:03:01.319Z,26.02
2018-10-16T13:05:29.843Z,26.23
2018-10-16T13:07:58.790Z,27.42
2018-10-16T13:10:27.440Z,26.50
2018-10-16T13:12:56.369Z,26.50
2018-10-16T13:15:25.056Z,27.17
2018-10-16T13:17:53.831Z,26.40
2018-10-16T13:20:22.489Z,26.85
2018-10-16T13:22:51.372Z,27.10
2018-10-16T13:25:20.290Z,26.50
2018-10-16T13:27:49.218Z,26.30
2018-10-16T13:30:19.503Z,27.30
2018-10-16T13:32:49.251Z,26.30
2018-10-16T13:38:02.170Z,26.23
2018-10-16T13:40:30.742Z,25.43
2018-10-16T13:43:00.397Z,26.75
2018-10-16T13:45:29.148Z,26.55
2018-10-16T13:47:58.081Z,25.43
2018-10-16T13:50:28.814Z,26.62
2018-10-16T13:52:57.875Z,25.82
2018-10-16T13:55:27.824Z,25.57
2018-10-16T13:57:57.175Z,26.85
2018-10-16T14:00:26.128Z,26.85
2018-10-16T14:02:54.950Z,27.02
2018-10-16T14:05:24.069Z,26.62
2018-10-16T14:07:52.972Z,26.57
2018-10-16T14:10:21.850Z,25.57
2018-10-16T14:12:51.506Z,26.05
2018-10-16T14:15:20.851Z,25.72
2018-10-16T14:17:50.055Z,25.90
2018-10-16T14:20:19.347Z,27.55
2018-10-16T14:22:49.455Z,26.35
2018-10-16T14:25:19.729Z,36.83
2018-10-16T14:27:48.863Z,30.43
2018-10-16T14:30:17.653Z,28.05
2018-10-16T14:32:47.387Z,27.75
2018-10-16T14:35:16.204Z,27.22
2018-10-16T14:37:45.016Z,27.15
2018-10-16T14:40:15.434Z,26.50
2018-10-16T14:42:44.438Z,26.07
2018-10-16T14:45:13.872Z,27.13
2018-10-16T14:47:42.589Z,27.45
2018-10-16T14:50:12.598Z,27.37
2018-10-16T14:52:41.502Z,27.05
2018-10-16T14:55:10.802Z,27.55
2018-10-16T14:57:39.630Z,26.33
2018-10-16T15:00:10.341Z,25.17
2018-10-16T15:02:39.164Z,28.15
2018-10-16T15:05:08.838Z,27.42
2018-10-16T15:07:37.502Z,27.85
2018-10-16T15:10:07.812Z,26.60
2018-10-16T15:12:37.134Z,26.75
2018-10-16T15:15:07.267Z,27.15
2018-10-16T15:17:35.933Z,25.52
2018-10-16T15:20:05.551Z,25.90
2018-10-16T15:22:34.147Z,27.25
2018-10-16T15:25:03.420Z,26.27
2018-10-16T15:27:32.236Z,26.33
2018-10-16T15:30:01.142Z,27.25
2018-10-16T15:32:30.236Z,26.93
2018-10-16T15:34:58.841Z,26.10
2018-10-16T15:37:27.506Z,24.90
2018-10-16T15:39:56.259Z,26.62
2018-10-16T15:42:25.444Z,26.87
2018-10-16T15:44:54.357Z,25.88
2018-10-16T15:47:22.956Z,25.50
2018-10-16T15:49:51.587Z,25.30
2018-10-16T15:52:20.377Z,26.35
2018-10-16T15:54:49.754Z,25.92
2018-10-16T15:57:18.515Z,26.20
2018-10-16T15:59:47.573Z,26.10
2018-10-16T16:02:17.173Z,26.00
2018-10-16T16:04:46.314Z,27.10
2018-10-16T16:07:14.991Z,26.25
2018-10-16T16:09:43.777Z,26.40
2018-10-16T16:12:12.611Z,26.15
2018-10-16T16:14:41.255Z,26.75
2018-10-16T16:17:10.041Z,26.07
2018-10-16T16:19:38.996Z,25.20
2018-10-16T16:22:07.819Z,26.60
2018-10-16T16:24:36.629Z,26.52
2018-10-16T16:27:05.309Z,26.23
2018-10-16T16:29:34.594Z,26.70
2018-10-16T16:32:03.357Z,26.42
2018-10-16T16:34:31.889Z,27.15
2018-10-16T16:37:00.855Z,26.60
2018-10-16T16:39:29.766Z,26.65
2018-10-16T16:41:58.464Z,26.93
2018-10-16T16:44:27.362Z,26.52
2018-10-16T16:46:56.400Z,27.27
2018-10-16T16:49:25.173Z,26.40
2018-10-16T16:51:53.924Z,25.60
2018-10-16T16:54:22.506Z,26.77
2018-10-16T16:56:51.274Z,27.37
2018-10-16T16:59:20.057Z,26.65
2018-10-16T17:01:49.348Z,28.15
2018-10-16T17:04:18.295Z,25.40
2018-10-16T17:06:47.214Z,25.68
2018-10-16T17:09:16.619Z,28.00
2018-10-16T17:11:45.425Z,28.92
2018-10-16T17:14:14.367Z,25.40
2018-10-16T17:16:43.084Z,26.35
2018-10-16T17:19:11.839Z,27.42
2018-10-16T17:21:40.504Z,25.17
2018-10-16T17:24:09.353Z,27.75
2018-10-16T17:26:38.188Z,26.55
2018-10-16T17:29:07.579Z,27.58
2018-10-16T17:31:36.340Z,26.80
2018-10-16T17:34:05.462Z,27.37
2018-10-16T17:36:34.397Z,26.42
2018-10-16T17:39:04.465Z,26.50
2018-10-16T17:41:33.541Z,26.93
2018-10-16T17:44:02.464Z,26.52
2018-10-16T17:46:31.316Z,27.60
2018-10-16T17:49:00.354Z,25.55
2018-10-16T17:51:29.872Z,26.75
2018-10-16T17:53:58.773Z,25.77
2018-10-16T17:56:27.828Z,27.98
2018-10-16T17:58:56.811Z,26.97
2018-10-16T18:01:25.813Z,27.20
2018-10-16T18:03:54.744Z,26.62
2018-10-16T18:06:23.781Z,26.10
2018-10-16T18:08:52.861Z,27.35
2018-10-16T18:11:21.865Z,26.97
2018-10-16T18:13:50.836Z,25.52
2018-10-16T18:16:20.554Z,27.50
2018-10-16T18:18:49.715Z,27.10
2018-10-16T18:21:19.446Z,28.27
2018-10-16T18:23:48.407Z,26.82
2018-10-16T18:26:17.103Z,26.40
2018-10-16T18:28:46.112Z,27.00
2018-10-16T18:31:15.702Z,25.62
2018-10-16T18:33:44.588Z,27.85
2018-10-16T18:36:13.593Z,25.55
2018-10-16T18:38:42.680Z,28.47
2018-10-16T18:41:11.799Z,26.80
2018-10-16T18:43:40.724Z,26.97
2018-10-16T18:46:09.632Z,25.90
2018-10-16T18:48:38.701Z,26.45
2018-10-16T18:51:07.935Z,26.93
2018-10-16T18:53:36.998Z,26.55
2018-10-16T18:56:06.604Z,26.80
2018-10-16T18:58:35.753Z,27.50
2018-10-16T19:01:04.798Z,26.82
2018-10-16T19:03:34.257Z,26.97
2018-10-16T19:06:04.563Z,25.25
2018-10-16T19:08:35.371Z,26.80
2018-10-16T19:11:04.447Z,25.55
2018-10-16T19:13:33.432Z,26.07
2018-10-16T19:16:02.886Z,25.90
2018-10-16T19:18:32.369Z,26.50
2018-10-16T19:21:01.411Z,28.95
2018-10-16T19:23:30.661Z,26.23
2018-10-16T19:25:59.655Z,27.45
2018-10-16T19:28:29.166Z,26.87
2018-10-16T19:30:58.472Z,26.02
2018-10-16T19:33:28.333Z,25.57
2018-10-16T19:35:57.281Z,25.35
2018-10-16T19:38:26.768Z,24.50
2018-10-16T19:40:55.772Z,26.65
2018-10-16T19:43:24.665Z,26.50
2018-10-16T19:45:53.455Z,25.57
2018-10-16T19:48:23.056Z,24.80
2018-10-16T19:50:52.577Z,23.73
2018-10-16T19:53:21.388Z,25.37
2018-10-16T19:55:50.162Z,25.35
2018-10-16T19:58:19.083Z,23.15
2018-10-16T20:00:48.069Z,26.02
2018-10-16T20:03:18.042Z,23.52
2018-10-16T20:05:47.222Z,24.27
2018-10-16T20:08:16.342Z,25.27
2018-10-16T20:10:45.339Z,23.95
2018-10-16T20:13:14.398Z,24.63
2018-10-16T20:15:44.260Z,25.12
2018-10-16T20:18:12.835Z,23.60
2018-10-16T20:20:42.602Z,23.45
2018-10-16T20:23:11.528Z,23.52
2018-10-16T20:25:41.104Z,24.72
2018-10-16T20:28:10.503Z,24.70
2018-10-16T20:30:39.456Z,25.12
2018-10-16T20:33:08.225Z,25.08
2018-10-16T20:35:37.217Z,25.25
2018-10-16T20:38:07.328Z,24.67
2018-10-16T20:40:36.272Z,25.37
2018-10-16T20:43:06.127Z,26.68
2018-10-16T20:45:34.847Z,24.70
2018-10-16T20:48:03.624Z,23.95
2018-10-16T20:50:32.512Z,23.95
2018-10-16T20:53:01.662Z,25.02
2018-10-16T20:55:30.322Z,24.20
2018-10-16T20:57:58.994Z,24.23
2018-10-16T21:00:28.083Z,23.47
2018-10-16T21:02:56.768Z,24.07
2018-10-16T21:05:25.569Z,24.67
2018-10-16T21:07:54.257Z,24.32
2018-10-16T21:10:23.078Z,24.55
2018-10-16T21:12:51.956Z,25.97
2018-10-16T21:15:22.016Z,24.47
2018-10-16T21:17:50.759Z,24.40
2018-10-16T21:20:19.624Z,25.25
2018-10-16T21:22:48.266Z,25.20
2018-10-16T21:25:17.614Z,24.02
2018-10-16T21:27:46.375Z,25.68
2018-10-16T21:30:15.977Z,24.18
2018-10-16T21:32:44.628Z,24.75
2018-10-16T21:35:13.606Z,26.30
2018-10-16T21:37:42.403Z,25.40
2018-10-16T21:40:11.167Z,25.35
2018-10-16T21:42:40.032Z,25.12
2018-10-16T21:45:09.197Z,24.43
2018-10-16T21:47:37.927Z,24.35
2018-10-16T21:50:07.388Z,24.67
2018-10-16T21:52:36.162Z,24.75
2018-10-16T21:55:05.146Z,26.15
2018-10-16T21:57:33.797Z,25.97
2018-10-16T22:00:02.664Z,23.57
2018-10-16T22:02:46.656Z,25.15
2018-10-16T22:05:19.383Z,24.43
2018-10-16T22:07:48.113Z,24.20
2018-10-16T22:10:16.799Z,25.82
2018-10-16T22:12:47.418Z,23.40
2018-10-16T22:15:16.599Z,25.05
2018-10-16T22:17:45.195Z,24.60
2018-10-16T22:20:14.495Z,22.82
2018-10-16T22:22:44.675Z,25.68
2018-10-16T22:25:14.151Z,23.07
2018-10-16T22:27:42.731Z,24.50
2018-10-16T22:30:11.469Z,23.73
2018-10-16T22:32:40.097Z,23.90
2018-10-16T22:35:10.438Z,24.43
2018-10-16T22:37:39.324Z,23.62
2018-10-16T22:40:09.301Z,23.12
2018-10-16T22:42:38.317Z,23.42
2018-10-16T22:45:07.860Z,24.32
2018-10-16T22:47:36.477Z,24.27
2018-10-16T22:50:07.206Z,22.65
2018-10-16T22:52:36.433Z,22.75
2018-10-16T22:55:06.183Z,23.35
2018-10-16T22:57:35.536Z,23.12
2018-10-16T23:00:05.147Z,23.05
2018-10-16T23:02:33.784Z,23.62
2018-10-16T23:05:02.527Z,23.20
2018-10-16T23:07:31.028Z,23.65
2018-10-16T23:10:00.256Z,22.37
2018-10-16T23:12:29.023Z,24.57
2018-10-16T23:14:58.282Z,24.00
2018-10-16T23:17:28.398Z,23.77
2018-10-16T23:19:57.524Z,24.18
2018-10-16T23:22:26.136Z,24.10
2018-10-16T23:24:54.780Z,22.95
2018-10-16T23:27:23.527Z,23.70
2018-10-16T23:29:52.147Z,24.05
2018-10-16T23:32:20.858Z,24.90
2018-10-16T23:34:49.596Z,21.68
2018-10-16T23:37:18.273Z,23.52
2018-10-16T23:39:48.471Z,22.60
2018-10-16T23:42:16.992Z,23.02
2018-10-16T23:44:45.560Z,22.85
2018-10-16T23:47:14.927Z,23.20
2018-10-16T23:49:43.822Z,22.25
2018-10-16T23:52:12.390Z,23.80
2018-10-16T23:54:40.949Z,24.18
2018-10-16T23:57:09.589Z,24.00
2018-10-16T23:59:38.269Z,24.10
